createdAt,value
2023-05-04T00:02:24.841Z,11.90
2023-05-04T00:05:13.897Z,11.90
2023-05-04T00:08:04.475Z,11.80
2023-05-04T00:10:54.478Z,11.80
2023-05-04T00:13:43.253Z,11.70
2023-05-04T00:16:32.239Z,11.70
2023-05-04T00:19:21.252Z,11.70
2023-05-04T00:22:10.219Z,11.70
2023-05-04T00:25:00.353Z,11.60
2023-05-04T00:27:49.464Z,11.60
2023-05-04T00:30:38.171Z,11.40
2023-05-04T00:33:26.947Z,11.30
2023-05-04T00:36:15.718Z,11.20
2023-05-04T00:39:04.920Z,11.30
2023-05-04T00:41:55.119Z,11.40
2023-05-04T00:44:45.020Z,11.40
2023-05-04T00:47:34.295Z,11.40
2023-05-04T00:50:23.297Z,11.50
2023-05-04T00:53:12.800Z,11.40
2023-05-04T00:56:02.640Z,11.40
2023-05-04T00:58:54.979Z,11.30
2023-05-04T01:01:43.979Z,11.20
2023-05-04T01:04:33.236Z,11.30
2023-05-04T01:07:28.835Z,11.20
2023-05-04T01:10:22.213Z,11.30
2023-05-04T01:13:13.666Z,11.20
2023-05-04T01:16:04.833Z,11.20
2023-05-04T01:18:53.688Z,11.20
2023-05-04T01:21:43.963Z,11.00
2023-05-04T01:24:33.224Z,11.10
2023-05-04T01:27:27.582Z,11.10
2023-05-04T01:30:20.717Z,11.10
2023-05-04T01:33:10.991Z,11.10
2023-05-04T01:36:00.600Z,10.90
2023-05-04T01:38:51.049Z,11.00
2023-05-04T01:41:41.652Z,11.00
2023-05-04T01:44:30.629Z,11.00
2023-05-04T01:47:19.669Z,10.90
2023-05-04T01:50:09.387Z,10.90
2023-05-04T01:52:58.206Z,10.90
2023-05-04T01:55:49.029Z,10.80
2023-05-04T01:58:38.321Z,10.70
2023-05-04T02:01:27.350Z,10.70
2023-05-04T02:04:16.230Z,10.80
2023-05-04T02:07:04.974Z,10.70
2023-05-04T02:09:53.689Z,10.70
2023-05-04T02:12:46.408Z,10.80
2023-05-04T02:15:35.184Z,10.40
2023-05-04T02:18:23.878Z,10.50
2023-05-04T02:21:13.014Z,10.60
2023-05-04T02:24:07.127Z,10.70
2023-05-04T02:26:55.986Z,10.70
2023-05-04T02:29:46.097Z,10.60
2023-05-04T02:32:34.987Z,10.50
2023-05-04T02:35:24.099Z,10.50
2023-05-04T02:38:12.948Z,10.30
2023-05-04T02:41:02.125Z,10.30
2023-05-04T02:43:51.191Z,10.50
2023-05-04T02:46:41.584Z,10.30
2023-05-04T02:49:30.313Z,10.30
2023-05-04T02:52:19.195Z,10.10
2023-05-04T02:55:08.518Z,10.10
2023-05-04T02:57:57.420Z,10.10
2023-05-04T03:00:46.412Z,10.10
2023-05-04T03:03:36.692Z,10.10
2023-05-04T03:06:25.458Z,10.20
2023-05-04T03:09:14.342Z,10.20
2023-05-04T03:12:03.936Z,10.20
2023-05-04T03:14:53.159Z,10.00
2023-05-04T03:17:42.178Z,10.10
2023-05-04T03:20:32.603Z,10.20
2023-05-04T03:23:23.299Z,10.30
2023-05-04T03:26:12.206Z,10.30
2023-05-04T03:29:01.123Z,10.20
2023-05-04T03:31:50.145Z,10.30
2023-05-04T03:34:40.047Z,10.30
2023-05-04T03:37:31.990Z,10.20
2023-05-04T03:40:23.114Z,10.20
2023-05-04T03:43:14.294Z,10.20
2023-05-04T03:46:05.936Z,10.30
2023-05-04T03:48:54.672Z,10.40
2023-05-04T03:51:43.823Z,10.40
2023-05-04T03:54:34.224Z,10.40
2023-05-04T03:57:24.442Z,10.40
2023-05-04T04:00:16.491Z,10.60
2023-05-04T04:03:11.022Z,10.70
2023-05-04T04:06:00.914Z,10.60
2023-05-04T04:08:49.735Z,10.70
2023-05-04T04:11:40.206Z,10.90
2023-05-04T04:14:28.976Z,11.10
2023-05-04T04:17:17.916Z,10.90
2023-05-04T04:20:08.139Z,11.20
2023-05-04T04:22:56.966Z,11.30
2023-05-04T04:25:46.259Z,11.20
2023-05-04T04:28:36.890Z,11.20
2023-05-04T04:31:25.776Z,11.10
2023-05-04T04:34:14.642Z,11.00
2023-05-04T04:37:03.678Z,11.00
2023-05-04T04:39:52.626Z,11.10
2023-05-04T04:42:42.011Z,11.30
2023-05-04T04:45:33.828Z,11.20
2023-05-04T04:48:23.700Z,11.30
2023-05-04T04:51:13.481Z,11.40
2023-05-04T04:54:02.309Z,11.60
2023-05-04T04:56:51.228Z,11.80
2023-05-04T04:59:39.961Z,11.90
2023-05-04T05:02:30.125Z,12.00
2023-05-04T05:05:19.251Z,12.50
2023-05-04T05:08:08.089Z,13.50
2023-05-04T05:10:57.509Z,13.80
2023-05-04T05:13:46.240Z,13.20
2023-05-04T05:16:35.318Z,12.70
2023-05-04T05:19:26.355Z,12.30
2023-05-04T05:22:15.242Z,12.00
2023-05-04T05:25:04.777Z,12.30
2023-05-04T05:27:53.962Z,12.40
2023-05-04T05:30:43.028Z,12.50
2023-05-04T05:33:32.418Z,12.60
2023-05-04T05:36:22.738Z,12.60
2023-05-04T05:39:11.586Z,12.80
2023-05-04T05:42:00.357Z,13.00
2023-05-04T05:44:49.489Z,13.10
2023-05-04T05:47:38.391Z,12.90
2023-05-04T05:50:27.200Z,12.80
2023-05-04T05:53:17.508Z,12.80
2023-05-04T05:56:06.449Z,12.80
2023-05-04T05:58:55.248Z,14.40
2023-05-04T06:01:44.039Z,15.80
2023-05-04T06:04:32.966Z,16.50
2023-05-04T06:07:22.149Z,16.10
2023-05-04T06:10:12.758Z,15.40
2023-05-04T06:13:01.738Z,14.70
2023-05-04T06:15:54.016Z,14.40
2023-05-04T06:18:42.888Z,14.40
2023-05-04T06:21:32.144Z,14.00
2023-05-04T06:24:21.794Z,14.50
2023-05-04T06:27:12.375Z,15.30
2023-05-04T06:30:01.691Z,16.90
2023-05-04T06:32:50.390Z,18.00
2023-05-04T06:35:39.212Z,16.70
2023-05-04T06:38:28.034Z,16.00
2023-05-04T06:41:17.029Z,16.10
2023-05-04T06:44:07.825Z,15.90
2023-05-04T06:46:56.645Z,15.70
2023-05-04T06:49:45.510Z,16.00
2023-05-04T06:52:34.447Z,15.90
2023-05-04T06:55:23.320Z,16.10
2023-05-04T06:58:12.631Z,16.50
2023-05-04T07:01:03.618Z,16.60
2023-05-04T07:03:52.678Z,16.70
2023-05-04T07:06:41.725Z,16.60
2023-05-04T07:09:30.926Z,16.80
2023-05-04T07:12:19.891Z,17.00
2023-05-04T07:15:09.877Z,17.20
2023-05-04T07:18:00.126Z,17.40
2023-05-04T07:20:48.930Z,17.80
2023-05-04T07:23:37.988Z,18.10
2023-05-04T07:26:27.061Z,17.90
2023-05-04T07:29:16.109Z,18.00
2023-05-04T07:32:05.183Z,18.10
2023-05-04T07:34:55.574Z,17.70
2023-05-04T07:37:44.311Z,17.90
2023-05-04T07:40:33.545Z,18.20
2023-05-04T07:43:22.474Z,18.70
2023-05-04T07:46:11.409Z,19.00
2023-05-04T07:49:00.236Z,19.30
2023-05-04T07:51:51.177Z,19.10
2023-05-04T07:54:40.022Z,19.20
2023-05-04T07:57:28.877Z,19.30
2023-05-04T08:00:18.799Z,19.60
2023-05-04T08:03:07.583Z,20.10
2023-05-04T08:05:56.337Z,20.60
2023-05-04T08:08:50.904Z,20.50
2023-05-04T08:11:41.463Z,20.70
2023-05-04T08:14:30.404Z,20.90
2023-05-04T08:17:19.562Z,21.60
2023-05-04T08:20:09.857Z,22.10
2023-05-04T08:22:58.633Z,21.90
2023-05-04T08:25:48.716Z,22.00
2023-05-04T08:28:38.864Z,20.00
2023-05-04T08:31:28.113Z,18.70
2023-05-04T08:34:16.985Z,18.50
2023-05-04T08:37:05.925Z,18.60
2023-05-04T08:39:54.754Z,20.00
2023-05-04T08:42:48.158Z,21.00
2023-05-04T08:45:39.782Z,20.60
2023-05-04T08:48:28.797Z,19.40
2023-05-04T08:51:17.998Z,19.10
2023-05-04T08:54:11.021Z,19.00
2023-05-04T08:57:00.037Z,18.80
2023-05-04T08:59:52.645Z,18.60
2023-05-04T09:02:41.797Z,20.10
2023-05-04T09:05:31.079Z,21.40
2023-05-04T09:08:21.162Z,22.00
2023-05-04T09:11:10.202Z,22.30
2023-05-04T09:13:58.961Z,22.40
2023-05-04T09:16:49.228Z,23.30
2023-05-04T09:19:39.413Z,23.40
2023-05-04T09:22:28.953Z,23.00
2023-05-04T09:25:17.815Z,22.80
2023-05-04T09:28:06.586Z,23.30
2023-05-04T09:31:02.792Z,23.10
2023-05-04T09:33:53.703Z,23.90
2023-05-04T09:36:43.320Z,24.10
2023-05-04T09:42:21.668Z,25.20
2023-05-04T09:45:12.647Z,25.30
2023-05-04T09:48:01.689Z,26.10
2023-05-04T09:50:53.263Z,25.80
2023-05-04T09:53:43.583Z,24.40
2023-05-04T09:56:40.050Z,23.40
2023-05-04T09:59:32.104Z,23.80
2023-05-04T10:02:23.277Z,23.30
2023-05-04T10:05:16.219Z,22.70
2023-05-04T10:08:07.194Z,22.00
2023-05-04T10:10:56.367Z,22.60
2023-05-04T10:13:45.347Z,22.70
2023-05-04T10:16:43.656Z,21.90
2023-05-04T10:19:49.084Z,22.30
2023-05-04T10:22:58.389Z,20.80
2023-05-04T10:26:08.412Z,20.60
2023-05-04T10:29:09.335Z,20.20
2023-05-04T10:31:59.751Z,22.60
2023-05-04T10:34:49.412Z,22.20
2023-05-04T10:37:38.846Z,21.70
2023-05-04T10:40:37.905Z,21.40
2023-05-04T10:43:30.334Z,21.50
2023-05-04T10:46:21.429Z,21.00
2023-05-04T10:49:17.874Z,20.80
2023-05-04T10:52:12.721Z,22.10
2023-05-04T10:55:02.714Z,26.10
2023-05-04T10:57:53.035Z,25.80
2023-05-04T11:00:44.866Z,27.30
2023-05-04T11:03:40.993Z,27.10
2023-05-04T11:06:29.909Z,25.70
2023-05-04T11:09:20.216Z,24.00
2023-05-04T11:12:11.007Z,23.70
2023-05-04T11:15:08.131Z,24.80
2023-05-04T11:17:58.516Z,25.40
2023-05-04T11:20:47.302Z,26.30
2023-05-04T11:23:36.135Z,31.20
2023-05-04T11:26:25.274Z,34.40
2023-05-04T11:29:14.783Z,34.40
2023-05-04T11:32:03.747Z,35.50
2023-05-04T11:34:53.873Z,37.30
2023-05-04T11:37:44.520Z,38.80
2023-05-04T11:40:33.684Z,40.20
2023-05-04T11:43:22.964Z,41.10
2023-05-04T11:46:12.971Z,41.40
2023-05-04T11:49:02.540Z,42.00
2023-05-04T11:51:53.157Z,43.30
2023-05-04T11:54:42.811Z,42.60
2023-05-04T11:57:32.589Z,43.90
2023-05-04T12:00:22.062Z,44.20
2023-05-04T12:03:13.430Z,42.70
2023-05-04T12:06:04.027Z,41.10
2023-05-04T12:09:03.733Z,39.90
2023-05-04T12:11:56.760Z,36.80
2023-05-04T12:14:52.064Z,33.90
2023-05-04T12:17:42.147Z,33.10
2023-05-04T12:20:32.036Z,35.40
2023-05-04T12:23:20.722Z,31.80
2023-05-04T12:26:11.743Z,30.60
2023-05-04T12:29:00.722Z,28.50
2023-05-04T12:31:49.770Z,27.10
2023-05-04T12:34:39.045Z,25.80
2023-05-04T12:37:27.726Z,25.10
2023-05-04T12:40:27.825Z,24.00
2023-05-04T12:43:22.892Z,23.20
2023-05-04T12:46:11.949Z,23.10
2023-05-04T12:49:01.036Z,22.80
2023-05-04T12:51:50.448Z,22.50
2023-05-04T12:54:39.210Z,21.90
2023-05-04T12:57:27.969Z,21.60
2023-05-04T13:00:18.836Z,21.40
2023-05-04T13:03:07.819Z,20.90
2023-05-04T13:05:57.051Z,20.80
2023-05-04T13:08:47.329Z,20.80
2023-05-04T13:11:36.205Z,20.10
2023-05-04T13:14:25.035Z,20.30
2023-05-04T13:17:15.850Z,20.10
2023-05-04T13:20:06.297Z,20.20
2023-05-04T13:22:58.228Z,20.30
2023-05-04T13:25:47.253Z,20.20
2023-05-04T13:28:37.925Z,20.20
2023-05-04T13:31:28.084Z,20.20
2023-05-04T13:34:18.319Z,20.20
2023-05-04T13:37:07.210Z,20.00
2023-05-04T13:39:56.523Z,20.20
2023-05-04T13:42:45.358Z,19.90
2023-05-04T13:45:34.959Z,19.50
2023-05-04T13:48:25.928Z,19.60
2023-05-04T13:51:16.625Z,19.60
2023-05-04T13:54:05.772Z,19.60
2023-05-04T13:56:54.474Z,19.60
2023-05-04T13:59:48.765Z,19.60
2023-05-04T14:02:47.481Z,19.60
2023-05-04T14:05:36.774Z,19.80
2023-05-04T14:08:27.561Z,19.80
2023-05-04T14:11:16.422Z,19.60
2023-05-04T14:14:05.306Z,19.50
2023-05-04T14:16:54.194Z,19.40
2023-05-04T14:19:42.971Z,19.10
2023-05-04T14:22:31.994Z,19.20
2023-05-04T14:25:22.562Z,19.20
2023-05-04T14:28:11.305Z,19.10
2023-05-04T14:31:08.647Z,19.20
2023-05-04T14:33:57.525Z,19.10
2023-05-04T14:36:46.478Z,19.20
2023-05-04T14:39:35.260Z,19.10
2023-05-04T14:42:25.395Z,19.00
2023-05-04T14:45:14.549Z,19.10
2023-05-04T14:48:03.733Z,19.10
2023-05-04T14:50:52.733Z,19.30
2023-05-04T14:53:41.530Z,19.30
2023-05-04T14:56:30.264Z,19.40
2023-05-04T14:59:20.353Z,19.30
2023-05-04T15:02:09.355Z,19.30
2023-05-04T15:04:58.148Z,19.10
2023-05-04T15:07:47.013Z,19.10
2023-05-04T15:10:36.030Z,19.00
2023-05-04T15:13:24.782Z,18.90
2023-05-04T15:16:18.860Z,19.00
2023-05-04T15:19:08.276Z,18.80
2023-05-04T15:21:57.084Z,19.00
2023-05-04T15:24:45.810Z,19.10
2023-05-04T15:27:34.645Z,18.80
2023-05-04T15:30:23.638Z,18.80
2023-05-04T15:33:13.797Z,18.90
2023-05-04T15:36:07.934Z,18.80
2023-05-04T15:38:56.749Z,18.70
2023-05-04T15:41:45.594Z,18.80
2023-05-04T15:44:34.292Z,18.90
2023-05-04T15:47:23.067Z,18.70
2023-05-04T15:50:13.447Z,18.50
2023-05-04T15:53:02.400Z,18.40
2023-05-04T15:55:51.849Z,18.30
2023-05-04T15:58:40.703Z,18.40
2023-05-04T16:01:29.458Z,18.30
2023-05-04T16:04:18.705Z,18.30
2023-05-04T16:07:08.910Z,18.50
2023-05-04T16:09:59.029Z,18.40
2023-05-04T16:12:47.909Z,18.40
2023-05-04T16:15:37.016Z,18.50
2023-05-04T16:18:25.882Z,18.40
2023-05-04T16:21:15.573Z,18.30
2023-05-04T16:24:07.785Z,18.40
2023-05-04T16:26:56.601Z,18.40
2023-05-04T16:29:45.427Z,18.30
2023-05-04T16:32:34.152Z,18.30
2023-05-04T16:35:23.157Z,18.20
2023-05-04T16:38:13.324Z,18.10
2023-05-04T16:41:03.561Z,18.10
2023-05-04T16:43:52.853Z,18.20
2023-05-04T16:46:42.038Z,18.20
2023-05-04T16:49:32.320Z,18.20
2023-05-04T16:52:21.361Z,18.10
2023-05-04T16:55:12.448Z,18.10
2023-05-04T16:58:03.300Z,18.00
2023-05-04T17:00:52.088Z,18.00
2023-05-04T17:03:40.970Z,17.90
2023-05-04T17:06:29.811Z,17.90
2023-05-04T17:09:18.628Z,17.80
2023-05-04T17:12:07.747Z,17.80
2023-05-04T17:14:58.347Z,17.90
2023-05-04T17:17:47.253Z,17.80
2023-05-04T17:20:36.031Z,17.80
2023-05-04T17:23:24.831Z,17.70
2023-05-04T17:26:13.495Z,17.60
2023-05-04T17:29:02.309Z,17.60
2023-05-04T17:31:52.547Z,17.60
2023-05-04T17:34:41.417Z,17.60
2023-05-04T17:40:19.845Z,17.40
2023-05-04T17:43:08.568Z,17.50
2023-05-04T17:45:57.433Z,17.30
2023-05-04T17:48:47.663Z,17.40
2023-05-04T17:54:25.413Z,17.20
2023-05-04T17:57:14.215Z,17.20
2023-05-04T18:00:05.498Z,17.30
2023-05-04T18:02:54.612Z,17.30
2023-05-04T18:05:46.151Z,17.20
2023-05-04T18:08:34.890Z,17.10
2023-05-04T18:11:23.598Z,17.00
2023-05-04T18:14:12.311Z,17.00
2023-05-04T18:17:01.311Z,17.00
2023-05-04T18:19:50.024Z,16.90
2023-05-04T18:22:40.210Z,16.90
2023-05-04T18:25:29.061Z,16.90
2023-05-04T18:28:17.932Z,16.90
2023-05-04T18:31:06.893Z,16.90
2023-05-04T18:33:55.626Z,16.90
2023-05-04T18:36:44.396Z,16.90
2023-05-04T18:39:34.578Z,16.80
2023-05-04T18:42:23.546Z,16.70
2023-05-04T18:45:13.225Z,16.60
2023-05-04T18:48:02.329Z,16.60
2023-05-04T18:50:57.349Z,16.50
2023-05-04T18:53:47.110Z,16.50
2023-05-04T18:56:37.368Z,16.50
2023-05-04T18:59:26.173Z,16.50
2023-05-04T19:02:17.547Z,16.50
2023-05-04T19:05:06.977Z,16.60
2023-05-04T19:07:55.771Z,16.50
2023-05-04T19:10:44.409Z,16.40
2023-05-04T19:13:34.532Z,16.30
2023-05-04T19:16:23.386Z,16.20
2023-05-04T19:19:12.229Z,16.10
2023-05-04T19:22:01.460Z,16.00
2023-05-04T19:24:51.889Z,16.10
2023-05-04T19:27:40.746Z,16.00
2023-05-04T19:30:31.208Z,16.10
2023-05-04T19:33:20.086Z,16.10
2023-05-04T19:36:08.888Z,16.00
2023-05-04T19:38:57.649Z,15.80
2023-05-04T19:41:46.466Z,15.80
2023-05-04T19:44:35.250Z,16.00
2023-05-04T19:47:25.823Z,16.00
2023-05-04T19:50:15.908Z,15.80
2023-05-04T19:53:04.875Z,15.80
2023-05-04T19:55:53.619Z,15.80
2023-05-04T19:58:42.283Z,15.80
2023-05-04T20:01:31.395Z,15.80
2023-05-04T20:04:21.839Z,15.80
2023-05-04T20:07:10.486Z,15.80
2023-05-04T20:09:59.337Z,15.70
2023-05-04T20:12:48.271Z,15.50
2023-05-04T20:15:37.058Z,15.70
2023-05-04T20:18:26.148Z,15.70
2023-05-04T20:21:16.763Z,15.60
2023-05-04T20:24:06.057Z,15.40
2023-05-04T20:26:54.844Z,15.20
2023-05-04T20:29:43.514Z,15.20
2023-05-04T20:32:32.369Z,15.00
2023-05-04T20:35:21.150Z,15.10
2023-05-04T20:38:11.348Z,14.80
2023-05-04T20:41:07.048Z,14.70
2023-05-04T20:43:55.893Z,14.90
2023-05-04T20:46:54.007Z,14.60
2023-05-04T20:49:42.884Z,14.60
2023-05-04T20:52:32.076Z,14.70
2023-05-04T20:55:22.445Z,14.70
2023-05-04T20:58:11.671Z,14.80
2023-05-04T21:01:04.797Z,14.90
2023-05-04T21:03:53.780Z,14.90
2023-05-04T21:06:42.514Z,14.70
2023-05-04T21:09:31.351Z,14.60
2023-05-04T21:12:21.457Z,14.50
2023-05-04T21:15:11.521Z,14.40
2023-05-04T21:18:00.385Z,14.40
2023-05-04T21:20:49.425Z,14.30
2023-05-04T21:23:38.422Z,14.20
2023-05-04T21:26:27.185Z,14.30
2023-05-04T21:29:17.276Z,14.30
2023-05-04T21:32:06.935Z,14.20
2023-05-04T21:34:55.614Z,14.10
2023-05-04T21:37:44.409Z,14.10
2023-05-04T21:40:33.349Z,14.20
2023-05-04T21:43:22.065Z,14.10
2023-05-04T21:46:12.893Z,13.90
2023-05-04T21:49:01.755Z,14.00
2023-05-04T21:51:50.543Z,14.10
2023-05-04T21:54:39.305Z,13.90
2023-05-04T21:57:28.058Z,13.80
2023-05-04T22:00:18.960Z,13.80
2023-05-04T22:03:09.098Z,13.60
2023-05-04T22:05:58.871Z,13.90
2023-05-04T22:08:47.617Z,13.60
2023-05-04T22:11:36.392Z,13.70
2023-05-04T22:14:25.043Z,13.80
2023-05-04T22:17:13.858Z,13.80
2023-05-04T22:20:04.099Z,13.70
2023-05-04T22:22:53.493Z,13.70
2023-05-04T22:25:42.494Z,13.70
2023-05-04T22:28:31.291Z,13.50
2023-05-04T22:31:20.374Z,13.70
2023-05-04T22:34:09.186Z,13.70
2023-05-04T22:36:59.210Z,13.60
2023-05-04T22:39:48.068Z,13.80
2023-05-04T22:42:36.805Z,13.60
2023-05-04T22:45:25.516Z,13.60
2023-05-04T22:48:15.164Z,13.50
2023-05-04T22:51:04.065Z,13.60
2023-05-04T22:53:54.142Z,13.50
2023-05-04T22:56:42.996Z,13.40
2023-05-04T22:59:32.354Z,13.30
2023-05-04T23:02:21.469Z,13.40
2023-05-04T23:05:10.790Z,13.20
2023-05-04T23:07:59.786Z,13.30
2023-05-04T23:10:49.923Z,13.40
2023-05-04T23:13:39.034Z,13.50
2023-05-04T23:16:28.002Z,13.40
2023-05-04T23:19:16.799Z,13.30
2023-05-04T23:22:05.937Z,13.20
2023-05-04T23:24:54.675Z,13.10
2023-05-04T23:27:46.454Z,13.20
2023-05-04T23:30:35.197Z,13.30
2023-05-04T23:33:23.828Z,13.20
2023-05-04T23:36:12.574Z,13.30
2023-05-04T23:39:01.441Z,13.20
2023-05-04T23:41:50.545Z,13.30
2023-05-04T23:44:40.681Z,13.30
2023-05-04T23:47:29.395Z,13.40
2023-05-04T23:50:18.412Z,13.50
2023-05-04T23:53:07.050Z,13.50
2023-05-04T23:56:01.926Z,13.50
2023-05-04T23:58:52.147Z,13.30
